sensor_id;sensor_type;location;lat;lon;timestamp;pressure;altitude;pressure_sealevel;temperature;humidity
59650;BME280;46162;57.568;25.814;2022-12-18T00:01:27;102059.56;;;-12.43;100.00
59650;BME280;46162;57.568;25.814;2022-12-18T00:03:56;102062.16;;;-12.42;100.00
59650;BME280;46162;57.568;25.814;2022-12-18T00:06:26;102067.06;;;-12.60;100.00
59650;BME280;46162;57.568;25.814;2022-12-18T00:08:59;102070.09;;;-12.36;100.00
59650;BME280;46162;57.568;25.814;2022-12-18T00:11:30;102065.59;;;-12.44;100.00
59650;BME280;46162;57.568;25.814;2022-12-18T00:13:59;102067.63;;;-12.28;100.00
59650;BME280;46162;57.568;25.814;2022-12-18T00:16:29;102066.91;;;-12.18;100.00
59650;BME280;46162;57.568;25.814;2022-12-18T00:19:00;102069.41;;;-12.24;100.00
59650;BME280;46162;57.568;25.814;2022-12-18T00:21:30;102076.59;;;-12.61;100.00
59650;BME280;46162;57.568;25.814;2022-12-18T00:24:01;102081.44;;;-12.79;100.00
59650;BME280;46162;57.568;25.814;2022-12-18T00:26:32;102082.97;;;-12.89;100.00
59650;BME280;46162;57.568;25.814;2022-12-18T00:29:03;102079.25;;;-13.02;100.00
59650;BME280;46162;57.568;25.814;2022-12-18T00:31:33;102083.53;;;-13.04;100.00
59650;BME280;46162;57.568;25.814;2022-12-18T00:34:03;102084.50;;;-13.00;100.00
59650;BME280;46162;57.568;25.814;2022-12-18T00:36:33;102076.53;;;-12.62;100.00
59650;BME280;46162;57.568;25.814;2022-12-18T00:39:04;102080.16;;;-12.56;100.00
59650;BME280;46162;57.568;25.814;2022-12-18T00:41:33;102082.44;;;-12.71;100.00
59650;BME280;46162;57.568;25.814;2022-12-18T00:44:19;102077.25;;;-12.71;100.00
59650;BME280;46162;57.568;25.814;2022-12-18T00:46:48;102080.16;;;-12.54;100.00
59650;BME280;46162;57.568;25.814;2022-12-18T00:49:18;102074.53;;;-12.77;100.00
59650;BME280;46162;57.568;25.814;2022-12-18T00:51:48;102066.47;;;-12.44;100.00
59650;BME280;46162;57.568;25.814;2022-12-18T00:54:18;102075.13;;;-12.45;100.00
59650;BME280;46162;57.568;25.814;2022-12-18T00:56:46;102069.44;;;-12.71;100.00
59650;BME280;46162;57.568;25.814;2022-12-18T00:59:17;102073.31;;;-12.49;100.00
59650;BME280;46162;57.568;25.814;2022-12-18T01:01:46;102074.78;;;-12.65;100.00
59650;BME280;46162;57.568;25.814;2022-12-18T01:04:15;102075.25;;;-12.37;100.00
59650;BME280;46162;57.568;25.814;2022-12-18T01:06:45;102079.81;;;-12.24;100.00
59650;BME280;46162;57.568;25.814;2022-12-18T01:09:13;102081.50;;;-12.27;100.00
59650;BME280;46162;57.568;25.814;2022-12-18T01:11:44;102070.59;;;-12.06;100.00
59650;BME280;46162;57.568;25.814;2022-12-18T01:14:12;102077.41;;;-12.63;100.00
59650;BME280;46162;57.568;25.814;2022-12-18T01:16:41;102072.47;;;-12.95;100.00
59650;BME280;46162;57.568;25.814;2022-12-18T01:19:10;102084.03;;;-12.81;100.00
59650;BME280;46162;57.568;25.814;2022-12-18T01:21:39;102093.25;;;-12.51;100.00
59650;BME280;46162;57.568;25.814;2022-12-18T01:24:11;102095.16;;;-12.41;100.00
59650;BME280;46162;57.568;25.814;2022-12-18T01:26:42;102095.03;;;-12.47;100.00
59650;BME280;46162;57.568;25.814;2022-12-18T01:29:13;102091.81;;;-12.32;100.00
59650;BME280;46162;57.568;25.814;2022-12-18T01:31:42;102087.88;;;-12.60;100.00
59650;BME280;46162;57.568;25.814;2022-12-18T01:34:10;102089.56;;;-12.62;100.00
59650;BME280;46162;57.568;25.814;2022-12-18T01:36:40;102092.66;;;-12.82;100.00
59650;BME280;46162;57.568;25.814;2022-12-18T01:39:11;102091.06;;;-12.75;100.00
59650;BME280;46162;57.568;25.814;2022-12-18T01:41:43;102096.22;;;-13.19;100.00
59650;BME280;46162;57.568;25.814;2022-12-18T01:44:56;102093.38;;;-13.33;100.00
59650;BME280;46162;57.568;25.814;2022-12-18T01:47:41;102098.59;;;-13.31;100.00
59650;BME280;46162;57.568;25.814;2022-12-18T01:50:14;102092.41;;;-12.94;100.00
59650;BME280;46162;57.568;25.814;2022-12-18T01:52:46;102093.69;;;-12.72;100.00
59650;BME280;46162;57.568;25.814;2022-12-18T01:55:18;102079.19;;;-12.59;100.00
59650;BME280;46162;57.568;25.814;2022-12-18T01:57:49;102084.81;;;-12.83;100.00
59650;BME280;46162;57.568;25.814;2022-12-18T02:00:22;102083.84;;;-12.90;100.00
59650;BME280;46162;57.568;25.814;2022-12-18T02:02:52;102090.41;;;-13.07;100.00
59650;BME280;46162;57.568;25.814;2022-12-18T02:05:29;102084.47;;;-13.44;100.00
59650;BME280;46162;57.568;25.814;2022-12-18T02:08:08;102087.34;;;-13.32;100.00
59650;BME280;46162;57.568;25.814;2022-12-18T02:10:46;102088.47;;;-13.96;100.00
59650;BME280;46162;57.568;25.814;2022-12-18T02:13:30;102081.69;;;-13.91;100.00
59650;BME280;46162;57.568;25.814;2022-12-18T02:16:06;102093.34;;;-13.74;100.00
59650;BME280;46162;57.568;25.814;2022-12-18T02:18:43;102099.44;;;-13.72;100.00
59650;BME280;46162;57.568;25.814;2022-12-18T02:21:22;102100.28;;;-13.35;100.00
59650;BME280;46162;57.568;25.814;2022-12-18T02:24:00;102102.25;;;-13.22;100.00
59650;BME280;46162;57.568;25.814;2022-12-18T02:26:38;102116.25;;;-13.92;100.00
59650;BME280;46162;57.568;25.814;2022-12-18T02:29:13;102117.56;;;-14.10;100.00
59650;BME280;46162;57.568;25.814;2022-12-18T02:31:49;102118.69;;;-14.66;100.00
59650;BME280;46162;57.568;25.814;2022-12-18T02:34:20;102118.31;;;-14.48;100.00
59650;BME280;46162;57.568;25.814;2022-12-18T02:36:51;102116.44;;;-14.54;100.00
59650;BME280;46162;57.568;25.814;2022-12-18T02:39:21;102117.41;;;-14.82;100.00
59650;BME280;46162;57.568;25.814;2022-12-18T02:41:59;102111.28;;;-14.53;100.00
59650;BME280;46162;57.568;25.814;2022-12-18T02:44:42;102102.03;;;-14.43;100.00
59650;BME280;46162;57.568;25.814;2022-12-18T02:47:15;102099.34;;;-14.46;100.00
59650;BME280;46162;57.568;25.814;2022-12-18T02:49:53;102107.72;;;-14.58;100.00
59650;BME280;46162;57.568;25.814;2022-12-18T02:52:35;102113.63;;;-14.93;100.00
59650;BME280;46162;57.568;25.814;2022-12-18T02:55:18;102108.78;;;-15.13;100.00
59650;BME280;46162;57.568;25.814;2022-12-18T02:57:57;102105.59;;;-14.71;100.00
59650;BME280;46162;57.568;25.814;2022-12-18T03:00:37;102104.38;;;-14.54;100.00
59650;BME280;46162;57.568;25.814;2022-12-18T03:03:10;102101.16;;;-14.43;100.00
59650;BME280;46162;57.568;25.814;2022-12-18T03:05:47;102104.94;;;-14.29;100.00
59650;BME280;46162;57.568;25.814;2022-12-18T03:08:20;102106.78;;;-14.91;100.00
59650;BME280;46162;57.568;25.814;2022-12-18T03:10:53;102105.72;;;-15.28;100.00
59650;BME280;46162;57.568;25.814;2022-12-18T03:13:28;102118.06;;;-15.78;100.00
59650;BME280;46162;57.568;25.814;2022-12-18T03:16:02;102110.13;;;-16.10;100.00
59650;BME280;46162;57.568;25.814;2022-12-18T03:18:37;102113.56;;;-16.37;100.00
59650;BME280;46162;57.568;25.814;2022-12-18T03:21:09;102111.13;;;-16.58;100.00
59650;BME280;46162;57.568;25.814;2022-12-18T03:23:42;102108.56;;;-16.83;100.00
59650;BME280;46162;57.568;25.814;2022-12-18T03:26:16;102107.00;;;-17.02;100.00
59650;BME280;46162;57.568;25.814;2022-12-18T03:28:55;102111.25;;;-17.04;100.00
59650;BME280;46162;57.568;25.814;2022-12-18T03:31:28;102107.59;;;-17.09;100.00
59650;BME280;46162;57.568;25.814;2022-12-18T03:34:04;102106.69;;;-16.87;100.00
59650;BME280;46162;57.568;25.814;2022-12-18T03:36:41;102109.53;;;-16.29;100.00
59650;BME280;46162;57.568;25.814;2022-12-18T03:39:10;102115.19;;;-16.64;100.00
59650;BME280;46162;57.568;25.814;2022-12-18T03:41:44;102110.78;;;-16.69;100.00
59650;BME280;46162;57.568;25.814;2022-12-18T03:44:34;102108.94;;;-16.20;100.00
59650;BME280;46162;57.568;25.814;2022-12-18T03:47:07;102107.41;;;-16.40;100.00
59650;BME280;46162;57.568;25.814;2022-12-18T03:49:42;102108.47;;;-16.08;100.00
59650;BME280;46162;57.568;25.814;2022-12-18T03:52:20;102115.63;;;-16.01;100.00
59650;BME280;46162;57.568;25.814;2022-12-18T03:54:52;102105.34;;;-16.25;100.00
59650;BME280;46162;57.568;25.814;2022-12-18T03:57:28;102113.94;;;-16.26;100.00
59650;BME280;46162;57.568;25.814;2022-12-18T04:00:01;102121.81;;;-16.47;100.00
59650;BME280;46162;57.568;25.814;2022-12-18T04:02:42;102125.31;;;-16.21;100.00
59650;BME280;46162;57.568;25.814;2022-12-18T04:05:19;102120.69;;;-16.30;100.00
59650;BME280;46162;57.568;25.814;2022-12-18T04:07:48;102124.06;;;-16.07;100.00
59650;BME280;46162;57.568;25.814;2022-12-18T04:10:24;102125.75;;;-16.07;100.00
59650;BME280;46162;57.568;25.814;2022-12-18T04:12:56;102118.22;;;-16.52;100.00
59650;BME280;46162;57.568;25.814;2022-12-18T04:15:31;102123.06;;;-16.87;100.00
59650;BME280;46162;57.568;25.814;2022-12-18T04:18:03;102117.19;;;-17.29;100.00
59650;BME280;46162;57.568;25.814;2022-12-18T04:20:41;102120.09;;;-17.44;100.00
59650;BME280;46162;57.568;25.814;2022-12-18T04:23:11;102129.81;;;-17.15;100.00
59650;BME280;46162;57.568;25.814;2022-12-18T04:25:40;102129.66;;;-16.95;100.00
59650;BME280;46162;57.568;25.814;2022-12-18T04:28:16;102132.59;;;-16.60;100.00
59650;BME280;46162;57.568;25.814;2022-12-18T04:30:49;102132.25;;;-16.95;100.00
59650;BME280;46162;57.568;25.814;2022-12-18T04:33:21;102126.47;;;-17.57;100.00
59650;BME280;46162;57.568;25.814;2022-12-18T04:35:51;102129.53;;;-18.11;100.00
59650;BME280;46162;57.568;25.814;2022-12-18T04:38:20;102121.53;;;-18.38;100.00
59650;BME280;46162;57.568;25.814;2022-12-18T04:40:56;102128.97;;;-18.04;100.00
59650;BME280;46162;57.568;25.814;2022-12-18T04:43:26;102136.44;;;-17.66;100.00
59650;BME280;46162;57.568;25.814;2022-12-18T04:46:03;102137.97;;;-17.49;100.00
59650;BME280;46162;57.568;25.814;2022-12-18T04:48:32;102145.91;;;-17.44;100.00
59650;BME280;46162;57.568;25.814;2022-12-18T04:51:02;102145.81;;;-17.23;100.00
59650;BME280;46162;57.568;25.814;2022-12-18T04:53:31;102150.66;;;-17.08;100.00
59650;BME280;46162;57.568;25.814;2022-12-18T04:56:05;102142.75;;;-16.91;100.00
59650;BME280;46162;57.568;25.814;2022-12-18T04:58:38;102136.88;;;-16.61;100.00
59650;BME280;46162;57.568;25.814;2022-12-18T05:01:10;102146.66;;;-16.76;100.00
59650;BME280;46162;57.568;25.814;2022-12-18T05:03:39;102145.78;;;-16.77;100.00
59650;BME280;46162;57.568;25.814;2022-12-18T05:06:09;102135.44;;;-16.77;100.00
59650;BME280;46162;57.568;25.814;2022-12-18T05:08:44;102151.19;;;-16.95;100.00
59650;BME280;46162;57.568;25.814;2022-12-18T05:11:18;102143.19;;;-16.78;100.00
59650;BME280;46162;57.568;25.814;2022-12-18T05:13:47;102145.59;;;-16.83;100.00
59650;BME280;46162;57.568;25.814;2022-12-18T05:16:18;102146.06;;;-17.85;100.00
59650;BME280;46162;57.568;25.814;2022-12-18T05:18:51;102147.63;;;-17.21;100.00
59650;BME280;46162;57.568;25.814;2022-12-18T05:21:23;102142.00;;;-17.33;100.00
59650;BME280;46162;57.568;25.814;2022-12-18T05:23:52;102140.03;;;-17.40;100.00
59650;BME280;46162;57.568;25.814;2022-12-18T05:26:24;102135.19;;;-17.31;100.00
59650;BME280;46162;57.568;25.814;2022-12-18T05:28:53;102141.22;;;-17.75;100.00
59650;BME280;46162;57.568;25.814;2022-12-18T05:31:24;102142.63;;;-17.40;100.00
59650;BME280;46162;57.568;25.814;2022-12-18T05:33:55;102142.16;;;-17.30;100.00
59650;BME280;46162;57.568;25.814;2022-12-18T05:36:24;102144.25;;;-17.20;100.00
59650;BME280;46162;57.568;25.814;2022-12-18T05:38:53;102141.31;;;-17.51;100.00
59650;BME280;46162;57.568;25.814;2022-12-18T05:41:22;102139.78;;;-17.46;100.00
59650;BME280;46162;57.568;25.814;2022-12-18T05:43:54;102141.72;;;-17.63;100.00
59650;BME280;46162;57.568;25.814;2022-12-18T05:46:28;102143.31;;;-17.67;100.00
59650;BME280;46162;57.568;25.814;2022-12-18T05:48:59;102140.84;;;-17.64;100.00
59650;BME280;46162;57.568;25.814;2022-12-18T05:51:34;102135.00;;;-17.60;100.00
59650;BME280;46162;57.568;25.814;2022-12-18T05:54:03;102137.31;;;-17.66;100.00
59650;BME280;46162;57.568;25.814;2022-12-18T05:56:35;102143.88;;;-17.74;100.00
59650;BME280;46162;57.568;25.814;2022-12-18T05:59:07;102149.03;;;-17.74;100.00
59650;BME280;46162;57.568;25.814;2022-12-18T06:01:43;102147.44;;;-17.70;100.00
59650;BME280;46162;57.568;25.814;2022-12-18T06:04:15;102144.19;;;-17.66;100.00
59650;BME280;46162;57.568;25.814;2022-12-18T06:06:44;102156.69;;;-17.54;100.00
59650;BME280;46162;57.568;25.814;2022-12-18T06:09:16;102154.69;;;-17.39;100.00
59650;BME280;46162;57.568;25.814;2022-12-18T06:11:48;102159.09;;;-17.37;100.00
59650;BME280;46162;57.568;25.814;2022-12-18T06:14:17;102155.63;;;-17.37;100.00
59650;BME280;46162;57.568;25.814;2022-12-18T06:16:52;102166.53;;;-17.22;100.00
59650;BME280;46162;57.568;25.814;2022-12-18T06:19:24;102159.63;;;-17.23;100.00
59650;BME280;46162;57.568;25.814;2022-12-18T06:21:53;102163.25;;;-17.18;100.00
59650;BME280;46162;57.568;25.814;2022-12-18T06:24:30;102161.63;;;-17.16;100.00
59650;BME280;46162;57.568;25.814;2022-12-18T06:27:03;102156.91;;;-17.26;100.00
59650;BME280;46162;57.568;25.814;2022-12-18T06:29:32;102155.38;;;-17.21;100.00
59650;BME280;46162;57.568;25.814;2022-12-18T06:32:03;102152.47;;;-17.30;100.00
59650;BME280;46162;57.568;25.814;2022-12-18T06:34:32;102162.31;;;-17.42;100.00
59650;BME280;46162;57.568;25.814;2022-12-18T06:37:01;102167.22;;;-17.71;100.00
59650;BME280;46162;57.568;25.814;2022-12-18T06:39:32;102159.38;;;-17.95;100.00
59650;BME280;46162;57.568;25.814;2022-12-18T06:42:04;102164.53;;;-17.95;100.00
59650;BME280;46162;57.568;25.814;2022-12-18T06:44:36;102168.09;;;-18.14;100.00
59650;BME280;46162;57.568;25.814;2022-12-18T06:47:09;102164.69;;;-18.13;100.00
59650;BME280;46162;57.568;25.814;2022-12-18T06:49:38;102169.69;;;-18.37;100.00
59650;BME280;46162;57.568;25.814;2022-12-18T06:52:07;102165.16;;;-18.43;100.00
59650;BME280;46162;57.568;25.814;2022-12-18T06:54:36;102185.72;;;-18.44;100.00
59650;BME280;46162;57.568;25.814;2022-12-18T06:57:05;102181.25;;;-18.48;100.00
59650;BME280;46162;57.568;25.814;2022-12-18T06:59:36;102183.06;;;-18.46;100.00
59650;BME280;46162;57.568;25.814;2022-12-18T07:02:14;102187.59;;;-18.59;100.00
59650;BME280;46162;57.568;25.814;2022-12-18T07:04:43;102184.56;;;-18.51;100.00
59650;BME280;46162;57.568;25.814;2022-12-18T07:07:15;102191.88;;;-18.60;100.00
59650;BME280;46162;57.568;25.814;2022-12-18T07:09:44;102191.47;;;-18.69;100.00
59650;BME280;46162;57.568;25.814;2022-12-18T07:12:13;102191.47;;;-18.69;100.00
59650;BME280;46162;57.568;25.814;2022-12-18T07:14:41;102188.09;;;-18.68;100.00
59650;BME280;46162;57.568;25.814;2022-12-18T07:17:11;102191.03;;;-18.80;100.00
59650;BME280;46162;57.568;25.814;2022-12-18T07:19:40;102192.75;;;-18.80;100.00
59650;BME280;46162;57.568;25.814;2022-12-18T07:22:08;102195.56;;;-18.94;100.00
59650;BME280;46162;57.568;25.814;2022-12-18T07:24:37;102201.06;;;-19.23;100.00
59650;BME280;46162;57.568;25.814;2022-12-18T07:27:06;102196.41;;;-19.50;100.00
59650;BME280;46162;57.568;25.814;2022-12-18T07:29:36;102206.34;;;-19.58;100.00
59650;BME280;46162;57.568;25.814;2022-12-18T07:32:05;102198.47;;;-19.61;100.00
59650;BME280;46162;57.568;25.814;2022-12-18T07:34:36;102211.69;;;-19.35;100.00
59650;BME280;46162;57.568;25.814;2022-12-18T07:37:04;102211.63;;;-19.55;100.00
59650;BME280;46162;57.568;25.814;2022-12-18T07:39:33;102205.41;;;-19.60;100.00
59650;BME280;46162;57.568;25.814;2022-12-18T07:42:02;102204.06;;;-19.52;100.00
59650;BME280;46162;57.568;25.814;2022-12-18T07:44:49;102200.00;;;-19.46;100.00
59650;BME280;46162;57.568;25.814;2022-12-18T07:47:17;102192.75;;;-19.55;100.00
59650;BME280;46162;57.568;25.814;2022-12-18T07:49:48;102198.41;;;-19.44;100.00
59650;BME280;46162;57.568;25.814;2022-12-18T07:52:17;102198.50;;;-19.23;100.00
59650;BME280;46162;57.568;25.814;2022-12-18T07:54:51;102190.63;;;-18.89;100.00
59650;BME280;46162;57.568;25.814;2022-12-18T07:57:20;102183.94;;;-18.65;100.00
59650;BME280;46162;57.568;25.814;2022-12-18T08:00:10;102182.41;;;-18.21;100.00
59650;BME280;46162;57.568;25.814;2022-12-18T08:02:39;102182.69;;;-18.14;100.00
59650;BME280;46162;57.568;25.814;2022-12-18T08:05:10;102192.75;;;-18.59;100.00
59650;BME280;46162;57.568;25.814;2022-12-18T08:07:39;102179.84;;;-18.61;100.00
59650;BME280;46162;57.568;25.814;2022-12-18T08:10:08;102177.69;;;-18.71;100.00
59650;BME280;46162;57.568;25.814;2022-12-18T08:12:37;102189.63;;;-18.52;100.00
59650;BME280;46162;57.568;25.814;2022-12-18T08:15:06;102182.75;;;-18.53;100.00
59650;BME280;46162;57.568;25.814;2022-12-18T08:17:35;102180.63;;;-18.43;100.00
59650;BME280;46162;57.568;25.814;2022-12-18T08:20:04;102178.19;;;-18.18;100.00
59650;BME280;46162;57.568;25.814;2022-12-18T08:22:37;102177.78;;;-17.87;100.00
59650;BME280;46162;57.568;25.814;2022-12-18T08:25:07;102181.47;;;-17.58;100.00
59650;BME280;46162;57.568;25.814;2022-12-18T08:27:36;102186.84;;;-17.31;100.00
59650;BME280;46162;57.568;25.814;2022-12-18T08:30:05;102176.50;;;-17.08;100.00
59650;BME280;46162;57.568;25.814;2022-12-18T08:32:34;102178.16;;;-17.33;100.00
59650;BME280;46162;57.568;25.814;2022-12-18T08:35:05;102184.25;;;-17.31;100.00
59650;BME280;46162;57.568;25.814;2022-12-18T08:37:37;102182.09;;;-16.98;100.00
59650;BME280;46162;57.568;25.814;2022-12-18T08:40:08;102183.97;;;-17.39;100.00
59650;BME280;46162;57.568;25.814;2022-12-18T08:42:37;102185.13;;;-17.53;100.00
59650;BME280;46162;57.568;25.814;2022-12-18T08:45:23;102181.94;;;-18.12;100.00
59650;BME280;46162;57.568;25.814;2022-12-18T08:47:54;102182.53;;;-18.38;100.00
59650;BME280;46162;57.568;25.814;2022-12-18T08:50:23;102177.66;;;-18.11;100.00
59650;BME280;46162;57.568;25.814;2022-12-18T08:52:53;102182.56;;;-17.74;100.00
59650;BME280;46162;57.568;25.814;2022-12-18T08:55:23;102187.91;;;-17.92;100.00
59650;BME280;46162;57.568;25.814;2022-12-18T08:57:52;102186.81;;;-18.18;100.00
59650;BME280;46162;57.568;25.814;2022-12-18T09:00:21;102185.69;;;-17.83;100.00
59650;BME280;46162;57.568;25.814;2022-12-18T09:02:50;102188.78;;;-17.91;100.00
59650;BME280;46162;57.568;25.814;2022-12-18T09:05:19;102185.56;;;-18.07;100.00
59650;BME280;46162;57.568;25.814;2022-12-18T09:07:48;102190.25;;;-17.75;100.00
59650;BME280;46162;57.568;25.814;2022-12-18T09:10:18;102180.41;;;-17.86;100.00
59650;BME280;46162;57.568;25.814;2022-12-18T09:12:48;102179.66;;;-18.04;100.00
59650;BME280;46162;57.568;25.814;2022-12-18T09:15:17;102176.84;;;-18.30;100.00
59650;BME280;46162;57.568;25.814;2022-12-18T09:17:49;102179.50;;;-18.28;100.00
59650;BME280;46162;57.568;25.814;2022-12-18T09:20:20;102172.03;;;-18.22;100.00
59650;BME280;46162;57.568;25.814;2022-12-18T09:22:48;102175.22;;;-17.87;100.00
59650;BME280;46162;57.568;25.814;2022-12-18T09:25:18;102179.53;;;-17.86;100.00
59650;BME280;46162;57.568;25.814;2022-12-18T09:27:51;102174.59;;;-17.80;100.00
59650;BME280;46162;57.568;25.814;2022-12-18T09:30:19;102173.63;;;-18.05;100.00
59650;BME280;46162;57.568;25.814;2022-12-18T09:32:48;102170.34;;;-18.01;100.00
59650;BME280;46162;57.568;25.814;2022-12-18T09:35:17;102163.09;;;-17.88;100.00
59650;BME280;46162;57.568;25.814;2022-12-18T09:37:45;102172.19;;;-17.75;100.00
59650;BME280;46162;57.568;25.814;2022-12-18T09:40:14;102166.53;;;-17.67;100.00
59650;BME280;46162;57.568;25.814;2022-12-18T09:42:51;102168.63;;;-17.57;100.00
59650;BME280;46162;57.568;25.814;2022-12-18T09:45:22;102170.47;;;-17.54;100.00
59650;BME280;46162;57.568;25.814;2022-12-18T09:47:54;102161.59;;;-17.61;100.00
59650;BME280;46162;57.568;25.814;2022-12-18T09:50:29;102170.53;;;-17.52;100.00
59650;BME280;46162;57.568;25.814;2022-12-18T09:53:04;102176.78;;;-17.46;100.00
59650;BME280;46162;57.568;25.814;2022-12-18T09:55:38;102168.44;;;-17.40;100.00
59650;BME280;46162;57.568;25.814;2022-12-18T09:58:18;102159.66;;;-17.21;100.00
59650;BME280;46162;57.568;25.814;2022-12-18T10:00:52;102154.31;;;-17.26;100.00
59650;BME280;46162;57.568;25.814;2022-12-18T10:03:21;102156.31;;;-17.19;100.00
59650;BME280;46162;57.568;25.814;2022-12-18T10:05:59;102160.19;;;-17.07;100.00
59650;BME280;46162;57.568;25.814;2022-12-18T10:08:35;102155.41;;;-16.97;100.00
59650;BME280;46162;57.568;25.814;2022-12-18T10:11:22;102157.78;;;-17.03;100.00
59650;BME280;46162;57.568;25.814;2022-12-18T10:14:05;102150.94;;;-16.77;100.00
59650;BME280;46162;57.568;25.814;2022-12-18T10:16:43;102144.34;;;-16.19;100.00
59650;BME280;46162;57.568;25.814;2022-12-18T10:19:23;102143.34;;;-15.12;100.00
59650;BME280;46162;57.568;25.814;2022-12-18T10:22:00;102149.69;;;-15.03;100.00
59650;BME280;46162;57.568;25.814;2022-12-18T10:24:39;102140.03;;;-14.77;100.00
59650;BME280;46162;57.568;25.814;2022-12-18T10:27:14;102148.03;;;-14.36;100.00
59650;BME280;46162;57.568;25.814;2022-12-18T10:29:45;102138.06;;;-13.86;100.00
59650;BME280;46162;57.568;25.814;2022-12-18T10:32:16;102135.44;;;-13.49;100.00
59650;BME280;46162;57.568;25.814;2022-12-18T10:34:46;102123.06;;;-13.20;100.00
59650;BME280;46162;57.568;25.814;2022-12-18T10:37:17;102122.69;;;-12.96;100.00
59650;BME280;46162;57.568;25.814;2022-12-18T10:39:47;102121.44;;;-12.72;100.00
59650;BME280;46162;57.568;25.814;2022-12-18T10:42:32;102123.50;;;-12.54;100.00
59650;BME280;46162;57.568;25.814;2022-12-18T10:45:07;102114.34;;;-12.36;100.00
59650;BME280;46162;57.568;25.814;2022-12-18T10:47:42;102123.31;;;-12.18;100.00
59650;BME280;46162;57.568;25.814;2022-12-18T10:50:29;102120.94;;;-12.06;100.00
59650;BME280;46162;57.568;25.814;2022-12-18T10:53:22;102115.91;;;-11.94;100.00
59650;BME280;46162;57.568;25.814;2022-12-18T10:55:52;102120.47;;;-11.77;100.00
59650;BME280;46162;57.568;25.814;2022-12-18T10:58:24;102116.34;;;-11.63;100.00
59650;BME280;46162;57.568;25.814;2022-12-18T11:01:19;102121.63;;;-11.58;100.00
59650;BME280;46162;57.568;25.814;2022-12-18T11:04:00;102120.00;;;-11.52;100.00
59650;BME280;46162;57.568;25.814;2022-12-18T11:06:30;102118.50;;;-11.36;100.00
59650;BME280;46162;57.568;25.814;2022-12-18T11:09:01;102128.97;;;-11.31;100.00
59650;BME280;46162;57.568;25.814;2022-12-18T11:11:39;102126.56;;;-11.19;100.00
59650;BME280;46162;57.568;25.814;2022-12-18T11:14:16;102122.41;;;-11.05;100.00
59650;BME280;46162;57.568;25.814;2022-12-18T11:16:49;102116.31;;;-11.05;100.00
59650;BME280;46162;57.568;25.814;2022-12-18T11:19:39;102113.78;;;-10.96;100.00
59650;BME280;46162;57.568;25.814;2022-12-18T11:22:19;102109.63;;;-10.82;100.00
59650;BME280;46162;57.568;25.814;2022-12-18T11:24:54;102109.69;;;-10.77;100.00
59650;BME280;46162;57.568;25.814;2022-12-18T11:27:48;102103.75;;;-10.65;100.00
59650;BME280;46162;57.568;25.814;2022-12-18T11:30:23;102100.31;;;-10.59;100.00
59650;BME280;46162;57.568;25.814;2022-12-18T11:32:57;102098.63;;;-10.54;100.00
59650;BME280;46162;57.568;25.814;2022-12-18T11:35:37;102108.38;;;-10.38;100.00
59650;BME280;46162;57.568;25.814;2022-12-18T11:38:17;102105.84;;;-10.30;100.00
59650;BME280;46162;57.568;25.814;2022-12-18T11:40:52;102105.91;;;-10.17;100.00
59650;BME280;46162;57.568;25.814;2022-12-18T11:43:27;102104.19;;;-10.14;100.00
59650;BME280;46162;57.568;25.814;2022-12-18T11:46:01;102095.53;;;-10.13;100.00
59650;BME280;46162;57.568;25.814;2022-12-18T11:48:37;102101.69;;;-10.02;100.00
59650;BME280;46162;57.568;25.814;2022-12-18T11:51:14;102108.72;;;-9.98;100.00
59650;BME280;46162;57.568;25.814;2022-12-18T11:53:45;102114.78;;;-9.99;100.00
59650;BME280;46162;57.568;25.814;2022-12-18T11:56:27;102113.94;;;-9.95;100.00
59650;BME280;46162;57.568;25.814;2022-12-18T11:59:07;102111.41;;;-9.84;100.00
59650;BME280;46162;57.568;25.814;2022-12-18T12:01:46;102108.03;;;-9.73;100.00
59650;BME280;46162;57.568;25.814;2022-12-18T12:04:46;102112.41;;;-9.68;100.00
59650;BME280;46162;57.568;25.814;2022-12-18T12:07:30;102109.94;;;-9.48;100.00
59650;BME280;46162;57.568;25.814;2022-12-18T12:10:12;102106.47;;;-9.46;100.00
59650;BME280;46162;57.568;25.814;2022-12-18T12:12:46;102114.34;;;-9.44;100.00
59650;BME280;46162;57.568;25.814;2022-12-18T12:15:29;102116.19;;;-9.23;100.00
59650;BME280;46162;57.568;25.814;2022-12-18T12:18:08;102106.66;;;-9.14;100.00
59650;BME280;46162;57.568;25.814;2022-12-18T12:20:49;102111.03;;;-9.08;100.00
59650;BME280;46162;57.568;25.814;2022-12-18T12:23:29;102102.34;;;-9.01;100.00
59650;BME280;46162;57.568;25.814;2022-12-18T12:26:03;102114.59;;;-8.97;100.00
59650;BME280;46162;57.568;25.814;2022-12-18T12:31:25;102105.91;;;-8.87;100.00
59650;BME280;46162;57.568;25.814;2022-12-18T12:34:03;102115.50;;;-8.81;100.00
59650;BME280;46162;57.568;25.814;2022-12-18T12:36:46;102112.88;;;-8.85;100.00
59650;BME280;46162;57.568;25.814;2022-12-18T12:39:22;102116.41;;;-8.74;100.00
59650;BME280;46162;57.568;25.814;2022-12-18T12:41:51;102118.16;;;-8.79;100.00
59650;BME280;46162;57.568;25.814;2022-12-18T12:44:40;102118.97;;;-8.91;100.00
59650;BME280;46162;57.568;25.814;2022-12-18T12:47:17;102117.22;;;-8.94;100.00
59650;BME280;46162;57.568;25.814;2022-12-18T12:49:48;102123.31;;;-8.95;100.00
59650;BME280;46162;57.568;25.814;2022-12-18T12:52:27;102123.31;;;-8.93;100.00
59650;BME280;46162;57.568;25.814;2022-12-18T12:54:57;102121.56;;;-8.99;100.00